sensor_id;sensor_type;location;lat;lon;timestamp;temperature;humidity
1992;DHT22;997;48.448;8.924;2023-05-10T08:55:32;15.90;99.90
1992;DHT22;997;48.448;8.924;2023-05-10T08:58:02;15.90;99.90
1992;DHT22;997;48.448;8.924;2023-05-10T09:00:28;15.70;99.90
1992;DHT22;997;48.448;8.924;2023-05-10T09:02:54;15.70;99.90
1992;DHT22;997;48.448;8.924;2023-05-10T09:05:20;15.70;99.90
1992;DHT22;997;48.448;8.924;2023-05-10T09:07:45;15.80;99.90
1992;DHT22;997;48.448;8.924;2023-05-10T09:10:11;15.70;99.90
1992;DHT22;997;48.448;8.924;2023-05-10T09:12:38;15.80;99.90
1992;DHT22;997;48.448;8.924;2023-05-10T09:15:05;15.90;99.90
1992;DHT22;997;48.448;8.924;2023-05-10T09:17:32;15.80;99.90
1992;DHT22;997;48.448;8.924;2023-05-10T09:20:03;15.80;99.90
1992;DHT22;997;48.448;8.924;2023-05-10T09:22:33;15.60;99.90
1992;DHT22;997;48.448;8.924;2023-05-10T09:25:12;15.50;99.90
1992;DHT22;997;48.448;8.924;2023-05-10T09:27:39;15.40;99.90
1992;DHT22;997;48.448;8.924;2023-05-10T09:30:06;15.40;99.90
1992;DHT22;997;48.448;8.924;2023-05-10T09:32:40;15.20;99.90
1992;DHT22;997;48.448;8.924;2023-05-10T09:35:07;14.90;99.90
1992;DHT22;997;48.448;8.924;2023-05-10T09:37:33;14.80;99.90
1992;DHT22;997;48.448;8.924;2023-05-10T09:39:59;14.50;99.90
1992;DHT22;997;48.448;8.924;2023-05-10T09:42:24;14.40;99.90
1992;DHT22;997;48.448;8.924;2023-05-10T09:44:50;14.50;99.90
1992;DHT22;997;48.448;8.924;2023-05-10T09:47:19;14.50;99.90
1992;DHT22;997;48.448;8.924;2023-05-10T09:49:49;14.50;99.90
1992;DHT22;997;48.448;8.924;2023-05-10T09:52:16;14.40;99.90
1992;DHT22;997;48.448;8.924;2023-05-10T09:54:52;14.40;99.90
1992;DHT22;997;48.448;8.924;2023-05-10T09:57:20;14.40;99.90
1992;DHT22;997;48.448;8.924;2023-05-10T09:59:47;14.50;99.90
1992;DHT22;997;48.448;8.924;2023-05-10T10:02:13;14.60;99.90
1992;DHT22;997;48.448;8.924;2023-05-10T10:04:40;14.80;99.90
1992;DHT22;997;48.448;8.924;2023-05-10T10:07:06;14.90;99.90
1992;DHT22;997;48.448;8.924;2023-05-10T10:09:33;15.00;99.90
1992;DHT22;997;48.448;8.924;2023-05-10T10:12:00;15.10;99.90
1992;DHT22;997;48.448;8.924;2023-05-10T10:14:25;15.40;99.90
1992;DHT22;997;48.448;8.924;2023-05-10T10:16:52;15.60;99.90
1992;DHT22;997;48.448;8.924;2023-05-10T10:19:21;15.80;99.90
1992;DHT22;997;48.448;8.924;2023-05-10T10:21:47;16.20;99.90
1992;DHT22;997;48.448;8.924;2023-05-10T10:24:13;16.50;99.90
1992;DHT22;997;48.448;8.924;2023-05-10T10:26:39;16.30;99.90
1992;DHT22;997;48.448;8.924;2023-05-10T10:32:08;16.70;99.90
1992;DHT22;997;48.448;8.924;2023-05-10T10:34:36;16.80;99.90
1992;DHT22;997;48.448;8.924;2023-05-10T10:37:05;16.80;99.90
1992;DHT22;997;48.448;8.924;2023-05-10T10:39:31;16.80;99.90
1992;DHT22;997;48.448;8.924;2023-05-10T10:41:58;16.60;99.90
1992;DHT22;997;48.448;8.924;2023-05-10T10:50:05;16.70;99.90
1992;DHT22;997;48.448;8.924;2023-05-10T10:52:33;16.70;99.90
1992;DHT22;997;48.448;8.924;2023-05-10T10:55:03;16.60;99.90
1992;DHT22;997;48.448;8.924;2023-05-10T10:57:49;16.30;99.90
1992;DHT22;997;48.448;8.924;2023-05-10T11:00:25;16.10;99.90
1992;DHT22;997;48.448;8.924;2023-05-10T11:03:00;15.70;99.90
1992;DHT22;997;48.448;8.924;2023-05-10T11:05:37;15.30;99.90
1992;DHT22;997;48.448;8.924;2023-05-10T11:08:13;14.70;99.90
1992;DHT22;997;48.448;8.924;2023-05-10T11:10:39;14.50;99.90
1992;DHT22;997;48.448;8.924;2023-05-10T11:13:09;14.20;99.90
1992;DHT22;997;48.448;8.924;2023-05-10T11:15:39;14.20;99.90
1992;DHT22;997;48.448;8.924;2023-05-10T11:18:19;14.20;99.90
1992;DHT22;997;48.448;8.924;2023-05-10T11:21:00;14.00;99.90
1992;DHT22;997;48.448;8.924;2023-05-10T11:23:33;14.00;99.90
1992;DHT22;997;48.448;8.924;2023-05-10T11:26:13;14.10;99.90
1992;DHT22;997;48.448;8.924;2023-05-10T11:28:43;14.00;99.90
1992;DHT22;997;48.448;8.924;2023-05-10T11:31:09;14.10;99.90
1992;DHT22;997;48.448;8.924;2023-05-10T11:33:50;14.00;99.90
1992;DHT22;997;48.448;8.924;2023-05-10T11:36:22;14.00;99.90
1992;DHT22;997;48.448;8.924;2023-05-10T11:38:48;14.00;99.90
1992;DHT22;997;48.448;8.924;2023-05-10T11:41:16;14.20;99.90
1992;DHT22;997;48.448;8.924;2023-05-10T11:43:42;14.30;99.90
1992;DHT22;997;48.448;8.924;2023-05-10T11:46:10;14.40;99.90
1992;DHT22;997;48.448;8.924;2023-05-10T11:48:38;14.50;99.90
1992;DHT22;997;48.448;8.924;2023-05-10T11:51:03;14.50;99.90
1992;DHT22;997;48.448;8.924;2023-05-10T11:53:31;14.40;99.90
1992;DHT22;997;48.448;8.924;2023-05-10T11:56:08;14.40;99.90
1992;DHT22;997;48.448;8.924;2023-05-10T11:58:35;14.40;99.90
1992;DHT22;997;48.448;8.924;2023-05-10T12:01:02;14.50;99.90
1992;DHT22;997;48.448;8.924;2023-05-10T12:03:29;14.60;99.90
1992;DHT22;997;48.448;8.924;2023-05-10T12:05:56;14.50;99.90
1992;DHT22;997;48.448;8.924;2023-05-10T12:08:26;14.70;99.90
1992;DHT22;997;48.448;8.924;2023-05-10T12:10:53;14.80;99.90
1992;DHT22;997;48.448;8.924;2023-05-10T12:13:20;14.80;99.90
1992;DHT22;997;48.448;8.924;2023-05-10T12:15:46;14.90;99.90
1992;DHT22;997;48.448;8.924;2023-05-10T12:18:13;15.00;99.90
1992;DHT22;997;48.448;8.924;2023-05-10T12:20:40;15.10;99.90
1992;DHT22;997;48.448;8.924;2023-05-10T12:23:07;15.20;99.90
1992;DHT22;997;48.448;8.924;2023-05-10T12:25:35;15.30;99.90
1992;DHT22;997;48.448;8.924;2023-05-10T12:28:04;15.40;99.90
1992;DHT22;997;48.448;8.924;2023-05-10T12:30:32;15.40;99.90
1992;DHT22;997;48.448;8.924;2023-05-10T12:33:12;15.40;99.90
1992;DHT22;997;48.448;8.924;2023-05-10T12:35:47;15.50;99.90
1992;DHT22;997;48.448;8.924;2023-05-10T12:38:33;15.60;99.90
1992;DHT22;997;48.448;8.924;2023-05-10T12:41:01;15.70;99.90
1992;DHT22;997;48.448;8.924;2023-05-10T12:43:27;15.90;99.90
1992;DHT22;997;48.448;8.924;2023-05-10T12:45:53;15.90;99.90
1992;DHT22;997;48.448;8.924;2023-05-10T12:48:19;16.20;99.90
1992;DHT22;997;48.448;8.924;2023-05-10T12:50:45;16.30;99.90
1992;DHT22;997;48.448;8.924;2023-05-10T12:53:11;16.40;99.90
1992;DHT22;997;48.448;8.924;2023-05-10T12:55:36;16.40;99.90
1992;DHT22;997;48.448;8.924;2023-05-10T12:58:02;16.60;99.90
1992;DHT22;997;48.448;8.924;2023-05-10T13:00:28;16.60;99.90
1992;DHT22;997;48.448;8.924;2023-05-10T13:02:53;16.70;99.90
1992;DHT22;997;48.448;8.924;2023-05-10T13:05:19;16.70;99.90
1992;DHT22;997;48.448;8.924;2023-05-10T13:07:45;16.80;99.90
1992;DHT22;997;48.448;8.924;2023-05-10T13:10:10;16.80;99.90
1992;DHT22;997;48.448;8.924;2023-05-10T13:12:36;17.00;99.90
1992;DHT22;997;48.448;8.924;2023-05-10T13:15:02;17.00;99.90
1992;DHT22;997;48.448;8.924;2023-05-10T13:17:28;16.90;99.90
1992;DHT22;997;48.448;8.924;2023-05-10T13:19:54;17.00;99.90
1992;DHT22;997;48.448;8.924;2023-05-10T13:22:20;17.20;99.90
1992;DHT22;997;48.448;8.924;2023-05-10T13:24:46;17.40;99.90
1992;DHT22;997;48.448;8.924;2023-05-10T13:27:11;17.60;99.90
1992;DHT22;997;48.448;8.924;2023-05-10T13:29:37;17.70;99.90
1992;DHT22;997;48.448;8.924;2023-05-10T13:32:03;17.60;99.90
1992;DHT22;997;48.448;8.924;2023-05-10T13:34:30;17.30;99.90
1992;DHT22;997;48.448;8.924;2023-05-10T13:36:55;17.40;99.90
1992;DHT22;997;48.448;8.924;2023-05-10T13:39:21;17.30;99.90
1992;DHT22;997;48.448;8.924;2023-05-10T13:41:47;17.30;99.90
1992;DHT22;997;48.448;8.924;2023-05-10T13:44:14;17.50;99.90
1992;DHT22;997;48.448;8.924;2023-05-10T13:46:41;17.60;99.90
1992;DHT22;997;48.448;8.924;2023-05-10T13:49:09;17.70;99.90
1992;DHT22;997;48.448;8.924;2023-05-10T13:51:35;17.80;99.90
1992;DHT22;997;48.448;8.924;2023-05-10T13:54:01;18.00;99.90
1992;DHT22;997;48.448;8.924;2023-05-10T13:56:27;18.00;99.90
1992;DHT22;997;48.448;8.924;2023-05-10T13:58:53;17.90;99.90
1992;DHT22;997;48.448;8.924;2023-05-10T14:01:18;17.80;99.90
1992;DHT22;997;48.448;8.924;2023-05-10T14:03:44;17.90;99.90
1992;DHT22;997;48.448;8.924;2023-05-10T14:06:10;17.90;99.90
1992;DHT22;997;48.448;8.924;2023-05-10T14:08:36;17.80;99.90
1992;DHT22;997;48.448;8.924;2023-05-10T14:11:02;17.70;99.90
1992;DHT22;997;48.448;8.924;2023-05-10T14:13:27;17.60;99.90
1992;DHT22;997;48.448;8.924;2023-05-10T14:15:53;17.70;99.90
1992;DHT22;997;48.448;8.924;2023-05-10T14:18:19;17.90;99.90
1992;DHT22;997;48.448;8.924;2023-05-10T14:20:45;18.00;99.90
1992;DHT22;997;48.448;8.924;2023-05-10T14:23:11;17.90;99.90
1992;DHT22;997;48.448;8.924;2023-05-10T14:25:39;17.90;99.90
1992;DHT22;997;48.448;8.924;2023-05-10T14:28:05;17.90;99.90
1992;DHT22;997;48.448;8.924;2023-05-10T14:30:31;17.80;99.90
1992;DHT22;997;48.448;8.924;2023-05-10T14:32:58;17.80;99.90
1992;DHT22;997;48.448;8.924;2023-05-10T14:35:24;17.70;99.90
1992;DHT22;997;48.448;8.924;2023-05-10T14:37:49;17.70;99.90
1992;DHT22;997;48.448;8.924;2023-05-10T14:40:15;17.50;99.90
1992;DHT22;997;48.448;8.924;2023-05-10T14:42:42;17.50;99.90
1992;DHT22;997;48.448;8.924;2023-05-10T14:45:09;17.40;99.90
1992;DHT22;997;48.448;8.924;2023-05-10T14:47:36;17.30;99.90
1992;DHT22;997;48.448;8.924;2023-05-10T14:50:02;17.20;99.90
1992;DHT22;997;48.448;8.924;2023-05-10T14:52:28;17.10;99.90
1992;DHT22;997;48.448;8.924;2023-05-10T14:54:54;16.90;99.90
1992;DHT22;997;48.448;8.924;2023-05-10T14:57:19;16.90;99.90
1992;DHT22;997;48.448;8.924;2023-05-10T14:59:45;16.80;99.90
1992;DHT22;997;48.448;8.924;2023-05-10T15:02:11;16.90;99.90
1992;DHT22;997;48.448;8.924;2023-05-10T15:04:37;17.00;99.90
1992;DHT22;997;48.448;8.924;2023-05-10T15:07:03;17.00;99.90
1992;DHT22;997;48.448;8.924;2023-05-10T15:09:28;17.10;99.90
1992;DHT22;997;48.448;8.924;2023-05-10T15:11:54;17.20;99.90
1992;DHT22;997;48.448;8.924;2023-05-10T15:14:21;17.20;99.90
1992;DHT22;997;48.448;8.924;2023-05-10T15:16:47;17.00;99.90
1992;DHT22;997;48.448;8.924;2023-05-10T15:19:12;16.90;99.90
1992;DHT22;997;48.448;8.924;2023-05-10T15:21:38;16.80;99.90
1992;DHT22;997;48.448;8.924;2023-05-10T15:24:08;16.60;99.90
1992;DHT22;997;48.448;8.924;2023-05-10T15:26:34;16.60;99.90
1992;DHT22;997;48.448;8.924;2023-05-10T15:28:59;16.70;99.90
1992;DHT22;997;48.448;8.924;2023-05-10T15:31:25;16.50;99.90
1992;DHT22;997;48.448;8.924;2023-05-10T15:33:59;16.40;99.90
1992;DHT22;997;48.448;8.924;2023-05-10T15:36:24;16.40;99.90
1992;DHT22;997;48.448;8.924;2023-05-10T15:38:50;16.40;99.90
1992;DHT22;997;48.448;8.924;2023-05-10T15:41:16;16.40;99.90
1992;DHT22;997;48.448;8.924;2023-05-10T15:43:42;16.40;99.90
1992;DHT22;997;48.448;8.924;2023-05-10T15:46:08;16.40;99.90
1992;DHT22;997;48.448;8.924;2023-05-10T15:48:33;16.30;99.90
1992;DHT22;997;48.448;8.924;2023-05-10T15:50:59;16.10;99.90
1992;DHT22;997;48.448;8.924;2023-05-10T15:53:25;16.00;99.90
1992;DHT22;997;48.448;8.924;2023-05-10T15:55:51;15.80;99.90
1992;DHT22;997;48.448;8.924;2023-05-10T15:58:18;15.90;99.90
1992;DHT22;997;48.448;8.924;2023-05-10T16:00:43;15.70;99.90
1992;DHT22;997;48.448;8.924;2023-05-10T16:03:09;15.60;99.90
1992;DHT22;997;48.448;8.924;2023-05-10T16:05:35;15.70;99.90
1992;DHT22;997;48.448;8.924;2023-05-10T16:08:01;15.70;99.90
1992;DHT22;997;48.448;8.924;2023-05-10T16:10:27;15.60;99.90
1992;DHT22;997;48.448;8.924;2023-05-10T16:12:56;15.70;99.90
1992;DHT22;997;48.448;8.924;2023-05-10T16:15:21;15.80;99.90
1992;DHT22;997;48.448;8.924;2023-05-10T16:17:47;15.80;99.90
1992;DHT22;997;48.448;8.924;2023-05-10T16:20:12;16.00;99.90
1992;DHT22;997;48.448;8.924;2023-05-10T16:22:38;16.00;99.90
1992;DHT22;997;48.448;8.924;2023-05-10T16:25:04;15.90;99.90
1992;DHT22;997;48.448;8.924;2023-05-10T16:27:30;15.90;99.90
1992;DHT22;997;48.448;8.924;2023-05-10T16:29:58;15.70;99.90
1992;DHT22;997;48.448;8.924;2023-05-10T16:32:24;15.60;99.90
1992;DHT22;997;48.448;8.924;2023-05-10T16:34:49;15.40;99.90
1992;DHT22;997;48.448;8.924;2023-05-10T16:37:15;15.20;99.90
1992;DHT22;997;48.448;8.924;2023-05-10T16:39:42;15.30;99.90
1992;DHT22;997;48.448;8.924;2023-05-10T16:42:07;15.40;99.90
1992;DHT22;997;48.448;8.924;2023-05-10T16:44:33;15.40;99.90
1992;DHT22;997;48.448;8.924;2023-05-10T16:46:59;15.30;99.90
1992;DHT22;997;48.448;8.924;2023-05-10T16:49:24;15.10;99.90
1992;DHT22;997;48.448;8.924;2023-05-10T16:51:50;15.00;99.90
1992;DHT22;997;48.448;8.924;2023-05-10T16:54:16;14.80;99.90
1992;DHT22;997;48.448;8.924;2023-05-10T16:56:42;14.90;99.90
1992;DHT22;997;48.448;8.924;2023-05-10T16:59:08;14.90;99.90
1992;DHT22;997;48.448;8.924;2023-05-10T17:01:34;15.00;99.90
1992;DHT22;997;48.448;8.924;2023-05-10T17:03:59;15.00;99.90
1992;DHT22;997;48.448;8.924;2023-05-10T17:06:25;14.90;99.90
1992;DHT22;997;48.448;8.924;2023-05-10T17:08:51;14.90;99.90
1992;DHT22;997;48.448;8.924;2023-05-10T17:11:16;15.00;99.90
1992;DHT22;997;48.448;8.924;2023-05-10T17:13:44;15.00;99.90
1992;DHT22;997;48.448;8.924;2023-05-10T17:16:10;14.90;99.90
1992;DHT22;997;48.448;8.924;2023-05-10T17:18:36;15.10;99.90
1992;DHT22;997;48.448;8.924;2023-05-10T17:21:02;15.10;99.90
1992;DHT22;997;48.448;8.924;2023-05-10T17:23:28;15.20;99.90
1992;DHT22;997;48.448;8.924;2023-05-10T17:25:54;15.30;99.90
1992;DHT22;997;48.448;8.924;2023-05-10T17:28:20;15.40;99.90
1992;DHT22;997;48.448;8.924;2023-05-10T17:30:46;15.20;99.90
1992;DHT22;997;48.448;8.924;2023-05-10T17:33:12;15.30;99.90
1992;DHT22;997;48.448;8.924;2023-05-10T17:35:37;15.30;99.90
1992;DHT22;997;48.448;8.924;2023-05-10T17:38:03;15.30;99.90
1992;DHT22;997;48.448;8.924;2023-05-10T17:40:28;15.40;99.90
1992;DHT22;997;48.448;8.924;2023-05-10T17:42:54;15.40;99.90
1992;DHT22;997;48.448;8.924;2023-05-10T17:45:20;15.30;99.90
1992;DHT22;997;48.448;8.924;2023-05-10T17:47:46;15.00;99.90
1992;DHT22;997;48.448;8.924;2023-05-10T17:50:11;14.90;99.90
1992;DHT22;997;48.448;8.924;2023-05-10T17:52:37;14.80;99.90
1992;DHT22;997;48.448;8.924;2023-05-10T17:55:03;14.70;99.90
1992;DHT22;997;48.448;8.924;2023-05-10T17:57:29;14.60;99.90
1992;DHT22;997;48.448;8.924;2023-05-10T17:59:55;14.60;99.90
1992;DHT22;997;48.448;8.924;2023-05-10T18:02:20;14.70;99.90
1992;DHT22;997;48.448;8.924;2023-05-10T18:04:46;14.70;99.90
1992;DHT22;997;48.448;8.924;2023-05-10T18:07:13;14.70;99.90
1992;DHT22;997;48.448;8.924;2023-05-10T18:09:39;14.80;99.90
1992;DHT22;997;48.448;8.924;2023-05-10T18:12:05;14.90;99.90
1992;DHT22;997;48.448;8.924;2023-05-10T18:14:31;15.00;99.90
1992;DHT22;997;48.448;8.924;2023-05-10T18:16:56;15.10;99.90
1992;DHT22;997;48.448;8.924;2023-05-10T18:19:23;15.20;99.90
1992;DHT22;997;48.448;8.924;2023-05-10T18:21:52;15.30;99.90
1992;DHT22;997;48.448;8.924;2023-05-10T18:24:18;15.40;99.90
1992;DHT22;997;48.448;8.924;2023-05-10T18:26:44;15.30;99.90
1992;DHT22;997;48.448;8.924;2023-05-10T18:29:10;15.20;99.90
1992;DHT22;997;48.448;8.924;2023-05-10T18:31:36;14.90;99.90
1992;DHT22;997;48.448;8.924;2023-05-10T18:34:01;14.80;99.90
1992;DHT22;997;48.448;8.924;2023-05-10T18:36:27;14.60;99.90
1992;DHT22;997;48.448;8.924;2023-05-10T18:38:53;14.40;99.90
1992;DHT22;997;48.448;8.924;2023-05-10T18:41:19;14.30;99.90
1992;DHT22;997;48.448;8.924;2023-05-10T18:43:45;14.30;99.90
1992;DHT22;997;48.448;8.924;2023-05-10T18:46:11;14.40;99.90
1992;DHT22;997;48.448;8.924;2023-05-10T18:48:37;14.40;99.90
1992;DHT22;997;48.448;8.924;2023-05-10T18:51:03;14.50;99.90
1992;DHT22;997;48.448;8.924;2023-05-10T18:53:29;14.40;99.90
1992;DHT22;997;48.448;8.924;2023-05-10T18:55:57;14.40;99.90
1992;DHT22;997;48.448;8.924;2023-05-10T18:58:25;14.50;99.90
1992;DHT22;997;48.448;8.924;2023-05-10T19:00:51;14.60;99.90
1992;DHT22;997;48.448;8.924;2023-05-10T19:03:18;14.70;99.90
1992;DHT22;997;48.448;8.924;2023-05-10T19:05:44;14.80;99.90
1992;DHT22;997;48.448;8.924;2023-05-10T19:08:11;14.80;99.90
1992;DHT22;997;48.448;8.924;2023-05-10T19:10:37;14.80;99.90
1992;DHT22;997;48.448;8.924;2023-05-10T19:13:02;14.80;99.90
1992;DHT22;997;48.448;8.924;2023-05-10T19:15:28;14.70;99.90
1992;DHT22;997;48.448;8.924;2023-05-10T19:17:54;14.80;99.90
1992;DHT22;997;48.448;8.924;2023-05-10T19:20:19;14.80;99.90
1992;DHT22;997;48.448;8.924;2023-05-10T19:22:45;14.80;99.90
1992;DHT22;997;48.448;8.924;2023-05-10T19:25:11;14.60;99.90
1992;DHT22;997;48.448;8.924;2023-05-10T19:27:37;14.60;99.90
1992;DHT22;997;48.448;8.924;2023-05-10T19:30:04;14.60;99.90
1992;DHT22;997;48.448;8.924;2023-05-10T19:32:30;14.40;99.90
1992;DHT22;997;48.448;8.924;2023-05-10T19:34:55;14.40;99.90
1992;DHT22;997;48.448;8.924;2023-05-10T19:37:21;14.40;99.90
1992;DHT22;997;48.448;8.924;2023-05-10T19:39:47;14.30;99.90
1992;DHT22;997;48.448;8.924;2023-05-10T19:42:12;14.30;99.90
1992;DHT22;997;48.448;8.924;2023-05-10T19:44:38;14.30;99.90
1992;DHT22;997;48.448;8.924;2023-05-10T19:47:04;14.20;99.90
1992;DHT22;997;48.448;8.924;2023-05-10T19:49:30;14.20;99.90
1992;DHT22;997;48.448;8.924;2023-05-10T19:51:55;14.20;99.90
1992;DHT22;997;48.448;8.924;2023-05-10T19:54:21;14.10;99.90
1992;DHT22;997;48.448;8.924;2023-05-10T19:56:47;14.10;99.90
1992;DHT22;997;48.448;8.924;2023-05-10T19:59:12;14.10;99.90
1992;DHT22;997;48.448;8.924;2023-05-10T20:01:38;14.10;99.90
1992;DHT22;997;48.448;8.924;2023-05-10T20:04:04;14.10;99.90
1992;DHT22;997;48.448;8.924;2023-05-10T20:06:30;14.00;99.90
1992;DHT22;997;48.448;8.924;2023-05-10T20:08:56;13.90;99.90
1992;DHT22;997;48.448;8.924;2023-05-10T20:11:21;13.80;99.90
1992;DHT22;997;48.448;8.924;2023-05-10T20:13:47;13.80;99.90
1992;DHT22;997;48.448;8.924;2023-05-10T20:16:13;13.70;99.90
1992;DHT22;997;48.448;8.924;2023-05-10T20:18:39;13.80;99.90
1992;DHT22;997;48.448;8.924;2023-05-10T20:21:05;13.80;99.90
1992;DHT22;997;48.448;8.924;2023-05-10T20:23:31;13.80;99.90
1992;DHT22;997;48.448;8.924;2023-05-10T20:25:57;13.80;99.90
1992;DHT22;997;48.448;8.924;2023-05-10T20:28:23;13.80;99.90
1992;DHT22;997;48.448;8.924;2023-05-10T20:30:52;13.70;99.90
1992;DHT22;997;48.448;8.924;2023-05-10T20:33:17;13.80;99.90
1992;DHT22;997;48.448;8.924;2023-05-10T20:35:43;13.70;99.90
1992;DHT22;997;48.448;8.924;2023-05-10T20:38:09;13.80;99.90
1992;DHT22;997;48.448;8.924;2023-05-10T20:40:34;13.80;99.90
1992;DHT22;997;48.448;8.924;2023-05-10T20:43:01;13.80;99.90
1992;DHT22;997;48.448;8.924;2023-05-10T20:45:27;13.90;99.90
1992;DHT22;997;48.448;8.924;2023-05-10T20:47:53;13.90;99.90
1992;DHT22;997;48.448;8.924;2023-05-10T20:50:18;13.80;99.90
1992;DHT22;997;48.448;8.924;2023-05-10T20:52:44;13.80;99.90
1992;DHT22;997;48.448;8.924;2023-05-10T20:55:10;13.60;99.90
1992;DHT22;997;48.448;8.924;2023-05-10T20:57:36;13.50;99.90
1992;DHT22;997;48.448;8.924;2023-05-10T21:00:02;13.40;99.90
1992;DHT22;997;48.448;8.924;2023-05-10T21:02:28;13.50;99.90
1992;DHT22;997;48.448;8.924;2023-05-10T21:04:53;13.50;99.90
1992;DHT22;997;48.448;8.924;2023-05-10T21:07:19;13.60;99.90
1992;DHT22;997;48.448;8.924;2023-05-10T21:09:45;13.60;99.90
1992;DHT22;997;48.448;8.924;2023-05-10T21:12:10;13.60;99.90
1992;DHT22;997;48.448;8.924;2023-05-10T21:14:36;13.60;99.90
1992;DHT22;997;48.448;8.924;2023-05-10T21:17:02;13.70;99.90
1992;DHT22;997;48.448;8.924;2023-05-10T21:19:27;13.50;99.90
1992;DHT22;997;48.448;8.924;2023-05-10T21:22:10;13.50;99.90
1992;DHT22;997;48.448;8.924;2023-05-10T21:24:36;13.50;99.90
1992;DHT22;997;48.448;8.924;2023-05-10T21:27:01;13.40;99.90
1992;DHT22;997;48.448;8.924;2023-05-10T21:29:28;13.40;99.90
